Time;durP1;ratioP1;P1;durP2;ratioP2;P2;SDS_P1;SDS_P2;PMS_P1;PMS_P2;Temp;Humidity;BMP_temperature;BMP_pressure;BME280_temperature;BME280_humidity;BME280_pressure;Samples;Min_cycle;Max_cycle;Signal;HPM_P1;HPM_P2
2022/06/19 00:03:51;;;;;;;14.85;10.45;;;16.70;99.90;;;;;;10526309;28;20029;-85
2022/06/19 00:08:52;;;;;;;14.02;9.73;;;16.70;99.90;;;;;;10499769;28;20049;-85
2022/06/19 00:13:53;;;;;;;12.98;9.82;;;16.60;99.90;;;;;;10474796;28;20033;-84
2022/06/19 00:18:53;;;;;;;13.30;9.82;;;16.60;99.90;;;;;;10457855;28;20409;-84
2022/06/19 00:23:54;;;;;;;14.55;10.48;;;16.60;99.90;;;;;;10471305;28;20045;-84
2022/06/19 00:28:56;;;;;;;16.70;10.20;;;16.50;99.90;;;;;;10464100;28;20028;-84
2022/06/19 00:33:56;;;;;;;16.58;10.63;;;16.50;99.90;;;;;;10486061;28;20020;-83
2022/06/19 00:38:57;;;;;;;15.27;10.48;;;16.40;99.90;;;;;;10473464;28;20028;-84
2022/06/19 00:44:08;;;;;;;15.40;9.70;;;16.20;99.90;;;;;;10480176;28;20078;-87
2022/06/19 00:49:25;;;;;;;13.80;10.38;;;16.20;99.90;;;;;;10483168;28;20125;-84
2022/06/19 00:54:28;;;;;;;15.02;10.40;;;16.20;99.90;;;;;;10477406;28;20020;-85
2022/06/19 00:59:29;;;;;;;14.25;9.88;;;16.10;99.90;;;;;;10482051;28;20424;-84
2022/06/19 01:04:45;;;;;;;15.00;10.50;;;16.10;99.90;;;;;;10483416;28;20059;-85
2022/06/19 01:09:45;;;;;;;20.20;9.95;;;16.00;99.90;;;;;;10475113;28;20391;-85
2022/06/19 01:14:47;;;;;;;13.38;9.35;;;16.00;99.90;;;;;;10478701;28;20017;-86
2022/06/19 01:19:49;;;;;;;14.38;9.18;;;16.00;99.90;;;;;;10465907;28;20389;-84
2022/06/19 01:25:11;;;;;;;13.00;9.63;;;16.00;99.90;;;;;;10473369;28;20037;-87
2022/06/19 01:30:13;;;;;;;21.23;11.20;;;15.90;99.90;;;;;;10468335;28;20024;-84
2022/06/19 01:35:16;;;;;;;13.48;8.85;;;15.90;99.90;;;;;;10483668;28;20056;-84
2022/06/19 01:40:20;;;;;;;14.27;9.02;;;15.90;99.90;;;;;;10471191;28;20037;-84
2022/06/19 01:45:22;;;;;;;12.60;9.45;;;16.00;99.90;;;;;;10453952;28;20036;-84
2022/06/19 01:50:26;;;;;;;12.45;9.52;;;16.00;99.90;;;;;;10477040;28;20100;-84
2022/06/19 01:55:28;;;;;;;17.65;11.43;;;16.00;99.90;;;;;;10469644;28;20023;-83
2022/06/19 02:00:32;;;;;;;14.43;10.02;;;16.00;99.90;;;;;;10480590;28;20020;-84
2022/06/19 02:05:34;;;;;;;14.07;10.18;;;16.00;99.90;;;;;;10485970;28;20506;-86
2022/06/19 02:10:40;;;;;;;15.35;11.15;;;15.90;99.90;;;;;;10490304;28;20468;-85
2022/06/19 02:15:45;;;;;;;17.90;11.23;;;15.90;99.90;;;;;;10475227;28;20021;-84
2022/06/19 02:20:45;;;;;;;19.33;10.27;;;15.70;99.90;;;;;;10481874;28;20371;-83
2022/06/19 02:25:48;;;;;;;16.95;11.05;;;15.70;99.90;;;;;;10486385;28;20113;-86
2022/06/19 02:30:49;;;;;;;17.52;11.07;;;15.60;99.90;;;;;;10490741;28;20024;-84
2022/06/19 02:35:49;;;;;;;14.80;10.25;;;15.60;99.90;;;;;;10474770;28;20464;-84
2022/06/19 02:41:09;;;;;;;15.68;10.70;;;15.50;99.90;;;;;;10483076;28;20008;-85
2022/06/19 02:46:10;;;;;;;16.33;11.63;;;15.50;99.90;;;;;;10489249;28;20089;-84
2022/06/19 02:51:11;;;;;;;18.80;11.50;;;15.50;99.90;;;;;;10454786;28;20058;-84
2022/06/19 02:56:11;;;;;;;18.17;11.40;;;15.40;99.90;;;;;;10476583;28;20020;-82
2022/06/19 03:01:13;;;;;;;13.52;9.25;;;15.50;99.90;;;;;;10470137;28;20021;-84
2022/06/19 03:06:13;;;;;;;16.20;10.70;;;15.50;99.90;;;;;;10477000;28;20391;-85
2022/06/19 03:11:14;;;;;;;16.13;10.00;;;15.60;99.90;;;;;;10482709;28;20036;-85
2022/06/19 03:16:15;;;;;;;13.63;10.00;;;15.60;99.90;;;;;;10516540;28;20053;-85
2022/06/19 03:21:16;;;;;;;14.50;10.25;;;15.60;99.90;;;;;;10522481;28;20020;-84
2022/06/19 03:26:16;;;;;;;14.98;10.70;;;15.60;99.90;;;;;;10526137;28;20357;-88
2022/06/19 03:31:20;;;;;;;14.52;10.88;;;15.70;99.90;;;;;;10529441;28;20051;-84
2022/06/19 03:36:21;;;;;;;15.95;10.05;;;15.70;99.90;;;;;;10516960;28;20015;-84
2022/06/19 03:41:22;;;;;;;13.02;9.95;;;15.70;99.90;;;;;;10530635;28;20074;-83
2022/06/19 03:46:22;;;;;;;14.43;10.02;;;15.80;99.90;;;;;;10511695;28;20043;-84
2022/06/19 03:51:23;;;;;;;12.63;10.27;;;15.90;99.90;;;;;;10515616;28;20047;-86
2022/06/19 03:56:31;;;;;;;16.33;10.85;;;16.00;99.90;;;;;;10513189;28;20519;-84
2022/06/19 04:01:34;;;;;;;13.73;9.63;;;16.10;99.90;;;;;;10504097;28;20079;-84
2022/06/19 04:06:39;;;;;;;15.65;10.43;;;16.20;99.90;;;;;;10512798;28;20032;-84
2022/06/19 04:11:41;;;;;;;14.43;10.25;;;16.30;99.90;;;;;;10466546;28;20033;-87
2022/06/19 04:16:45;;;;;;;14.90;9.70;;;16.50;99.90;;;;;;10463509;28;20077;-83
2022/06/19 04:21:46;;;;;;;13.02;8.63;;;16.60;99.90;;;;;;10477411;28;20111;-87
2022/06/19 04:26:47;;;;;;;18.55;9.45;;;16.70;99.90;;;;;;10475207;28;20028;-84
2022/06/19 04:31:48;;;;;;;12.43;8.77;;;16.90;99.90;;;;;;10478609;28;20024;-84
2022/06/19 04:36:49;;;;;;;11.30;8.07;;;17.00;99.90;;;;;;10463004;28;20024;-84
2022/06/19 04:41:51;;;;;;;13.88;9.68;;;17.10;99.90;;;;;;10441855;28;20056;-87
2022/06/19 04:46:51;;;;;;;13.30;8.73;;;17.30;99.90;;;;;;10473909;28;20349;-84
2022/06/19 04:51:52;;;;;;;10.27;7.75;;;17.40;99.90;;;;;;10477350;28;20032;-84
2022/06/19 04:56:52;;;;;;;13.25;8.40;;;17.60;99.90;;;;;;10481785;28;20044;-86
2022/06/19 05:01:53;;;;;;;11.43;8.20;;;17.80;99.90;;;;;;10478262;28;20410;-86
2022/06/19 05:06:54;;;;;;;9.30;6.75;;;18.00;99.90;;;;;;10466479;28;20106;-85
2022/06/19 05:11:54;;;;;;;10.60;8.10;;;18.20;99.90;;;;;;10473698;28;20435;-83
2022/06/19 05:16:55;;;;;;;11.23;6.50;;;18.40;99.90;;;;;;10471358;28;20035;-86
2022/06/19 05:21:56;;;;;;;9.63;7.15;;;18.60;99.90;;;;;;10479058;28;20020;-84
2022/06/19 05:26:57;;;;;;;10.52;6.47;;;18.80;99.90;;;;;;10468589;28;20029;-85
2022/06/19 05:31:58;;;;;;;8.63;5.88;;;19.10;99.90;;;;;;10485438;28;20029;-84
2022/06/19 05:36:59;;;;;;;8.90;5.60;;;19.30;99.90;;;;;;10478741;28;20029;-84
2022/06/19 05:42:02;;;;;;;8.93;5.65;;;19.50;99.90;;;;;;10460347;28;20009;-84
2022/06/19 05:47:03;;;;;;;8.07;5.18;;;19.80;99.90;;;;;;10461133;28;20036;-84
2022/06/19 05:52:19;;;;;;;6.13;4.50;;;20.10;99.90;;;;;;10472056;28;20067;-84
2022/06/19 05:57:21;;;;;;;5.70;4.60;;;20.40;99.90;;;;;;10451085;28;20108;-84
2022/06/19 06:02:23;;;;;;;7.22;4.20;;;20.60;99.90;;;;;;10476662;28;20104;-85
2022/06/19 06:07:23;;;;;;;5.20;3.72;;;20.80;99.90;;;;;;10462257;28;20511;-85
2022/06/19 06:12:24;;;;;;;6.75;3.50;;;21.10;99.90;;;;;;10525548;28;20155;-85
2022/06/19 06:17:25;;;;;;;4.70;3.22;;;21.30;99.90;;;;;;10516002;28;20035;-84
2022/06/19 06:22:25;;;;;;;6.28;2.90;;;21.60;99.90;;;;;;10493076;28;20020;-84
2022/06/19 06:27:26;;;;;;;4.13;2.90;;;21.80;98.40;;;;;;10513070;28;20391;-85
2022/06/19 06:32:27;;;;;;;4.07;2.60;;;21.90;96.20;;;;;;10515248;28;20016;-85
2022/06/19 06:37:27;;;;;;;4.25;2.55;;;22.20;94.40;;;;;;10522113;28;20059;-84
2022/06/19 06:42:28;;;;;;;2.65;2.30;;;22.30;94.70;;;;;;10534090;28;20024;-84
2022/06/19 06:47:29;;;;;;;3.35;2.42;;;22.50;93.20;;;;;;10546865;28;20081;-86
2022/06/19 06:52:29;;;;;;;3.38;2.47;;;22.90;92.40;;;;;;10543847;28;20016;-84
2022/06/19 06:57:30;;;;;;;3.20;2.30;;;23.60;91.30;;;;;;10575230;28;20022;-85
2022/06/19 07:02:31;;;;;;;3.35;2.55;;;24.80;89.30;;;;;;10576979;28;20479;-86
2022/06/19 07:07:31;;;;;;;7.63;2.67;;;25.70;85.20;;;;;;10570659;28;20422;-84
2022/06/19 07:12:32;;;;;;;3.38;2.30;;;26.40;83.30;;;;;;10532663;28;20125;-84
2022/06/19 07:17:32;;;;;;;3.75;2.55;;;27.00;80.70;;;;;;10534443;28;20024;-84
2022/06/19 07:22:47;;;;;;;4.38;2.30;;;27.50;78.50;;;;;;10534022;28;20028;-85
2022/06/19 07:27:48;;;;;;;7.55;2.10;;;27.70;75.00;;;;;;10528973;28;20072;-85
2022/06/19 07:32:49;;;;;;;4.70;2.13;;;28.00;74.10;;;;;;10518316;28;20124;-84
2022/06/19 07:37:53;;;;;;;3.53;2.13;;;28.10;73.10;;;;;;10509054;28;20074;-87
2022/06/19 07:42:54;;;;;;;2.55;1.80;;;28.20;73.00;;;;;;10512260;28;20036;-85
2022/06/19 07:53:15;;;;;;;2.33;1.73;;;28.40;72.20;;;;;;10506162;28;20028;-88
2022/06/19 07:58:15;;;;;;;2.10;1.80;;;28.20;71.40;;;;;;10518790;28;20017;-87
2022/06/19 08:03:16;;;;;;;1.88;1.60;;;28.00;72.50;;;;;;10529449;28;20046;-85
2022/06/19 08:08:27;;;;;;;3.95;1.95;;;28.00;72.50;;;;;;10514099;28;20157;-85
2022/06/19 08:13:30;;;;;;;5.00;2.35;;;28.00;72.10;;;;;;10468657;28;20024;-83
2022/06/19 08:18:32;;;;;;;3.65;2.10;;;28.00;73.80;;;;;;10473508;28;20012;-85
2022/06/19 08:23:33;;;;;;;3.40;1.83;;;28.10;72.80;;;;;;10471665;28;20476;-85
2022/06/19 08:33:44;;;;;;;2.50;2.10;;;28.20;71.60;;;;;;10476139;28;20028;-85
2022/06/19 08:38:54;;;;;;;4.50;2.08;;;28.20;72.40;;;;;;10484651;28;20356;-85
2022/06/19 08:44:12;;;;;;;3.10;1.75;;;28.60;73.00;;;;;;10458591;28;20040;-90
2022/06/19 08:49:22;;;;;;;3.45;2.20;;;28.70;71.40;;;;;;10475599;28;20078;-88
2022/06/19 08:54:45;;;;;;;3.22;2.15;;;29.10;72.10;;;;;;10469975;28;20021;-85
2022/06/19 08:59:48;;;;;;;2.53;1.90;;;29.30;70.00;;;;;;10465608;28;20079;-84
2022/06/19 09:10:46;;;;;;;2.92;2.10;;;29.50;67.90;;;;;;10468758;28;20148;-84
2022/06/19 09:15:49;;;;;;;5.80;1.92;;;29.30;69.20;;;;;;10462310;28;20067;-87
2022/06/19 09:21:11;;;;;;;4.28;2.53;;;29.40;70.80;;;;;;10474066;28;20555;-85
2022/06/19 09:26:26;;;;;;;3.15;2.08;;;29.60;69.40;;;;;;10478649;28;20231;-84
2022/06/19 09:31:35;;;;;;;3.97;1.85;;;29.60;68.70;;;;;;10480070;28;20056;-83
2022/06/19 09:36:54;;;;;;;3.65;2.03;;;29.70;68.20;;;;;;10451704;28;20100;-85
2022/06/19 09:42:15;;;;;;;3.50;1.80;;;29.80;70.30;;;;;;10471762;28;20051;-85
2022/06/19 09:47:30;;;;;;;3.30;1.80;;;29.90;67.40;;;;;;10451390;28;20048;-83
2022/06/19 09:52:33;;;;;;;;;;;29.90;67.30;;;;;;10440055;28;20055;-85
2022/06/19 09:58:00;;;;;;;3.47;1.60;;;30.00;69.50;;;;;;10449747;28;20014;-88
2022/06/19 10:03:35;;;;;;;4.85;2.00;;;30.30;70.60;;;;;;10413308;28;20076;-86
2022/06/19 10:08:52;;;;;;;4.85;2.20;;;30.70;70.90;;;;;;10454890;28;20056;-85
2022/06/19 10:14:01;;;;;;;3.38;1.98;;;30.90;67.80;;;;;;10452061;28;20483;-85
2022/06/19 10:31:11;;;;;;;8.40;2.30;;;30.80;66.80;;;;;;10463867;28;20032;-86
2022/06/19 10:36:32;;;;;;;3.97;2.13;;;31.00;66.50;;;;;;10459689;28;20100;-86
2022/06/19 10:42:06;;;;;;;4.13;2.30;;;30.90;66.40;;;;;;10479174;28;20048;-84
2022/06/19 10:47:30;;;;;;;5.53;2.50;;;30.80;67.60;;;;;;10472677;28;20108;-87
2022/06/19 10:52:59;;;;;;;3.60;1.83;;;30.90;68.70;;;;;;10462102;28;20514;-84
2022/06/19 10:58:11;;;;;;;3.50;1.95;;;31.10;66.70;;;;;;10464030;28;20041;-87
2022/06/19 11:04:08;;;;;;;3.30;2.20;;;31.30;66.00;;;;;;10480283;28;20039;-85
2022/06/19 11:09:22;;;;;;;2.20;1.90;;;31.40;64.20;;;;;;10479419;28;20536;-88
2022/06/19 11:14:43;;;;;;;2.55;1.80;;;31.30;67.60;;;;;;10447683;28;20025;-86
2022/06/19 11:19:47;;;;;;;5.53;2.03;;;31.30;65.90;;;;;;10467728;28;20033;-85
2022/06/19 11:24:48;;;;;;;3.53;2.00;;;31.50;63.60;;;;;;10480198;28;20036;-85
2022/06/19 11:29:52;;;;;;;5.47;2.20;;;31.60;63.40;;;;;;10472417;28;20029;-84
2022/06/19 11:35:03;;;;;;;3.10;1.98;;;31.70;65.60;;;;;;10463675;28;20115;-85
2022/06/19 11:40:06;;;;;;;3.95;2.20;;;31.80;64.40;;;;;;10475904;28;20021;-86
2022/06/19 11:45:15;;;;;;;1.97;1.83;;;31.90;65.20;;;;;;10464286;28;20483;-83
2022/06/19 11:50:18;;;;;;;3.42;1.90;;;31.90;63.10;;;;;;10471332;28;20479;-85
2022/06/19 11:55:27;;;;;;;8.15;2.10;;;31.90;63.50;;;;;;10462087;28;20032;-85
2022/06/19 12:00:32;;;;;;;7.93;2.42;;;31.90;62.10;;;;;;10446307;28;20376;-85
2022/06/19 12:05:38;;;;;;;7.13;2.47;;;31.90;61.90;;;;;;10468424;28;20044;-85
2022/06/19 12:10:40;;;;;;;4.35;2.17;;;32.10;63.50;;;;;;10491843;28;20040;-86
2022/06/19 12:15:59;;;;;;;3.40;2.00;;;31.90;63.00;;;;;;10513600;28;20020;-85
2022/06/19 12:21:20;;;;;;;11.40;2.30;;;32.00;62.90;;;;;;10512374;28;20134;-84
2022/06/19 12:26:34;;;;;;;5.85;2.50;;;31.90;62.80;;;;;;10513915;28;20111;-83
2022/06/19 12:31:38;;;;;;;5.03;2.08;;;32.00;61.20;;;;;;10510266;28;20473;-84
2022/06/19 12:36:38;;;;;;;;;;;32.00;62.20;;;;;;10513333;28;20039;-85
2022/06/19 12:41:51;;;;;;;6.57;2.92;;;31.90;61.90;;;;;;10505793;28;19908;-86
2022/06/19 12:46:54;;;;;;;5.75;2.20;;;32.20;62.00;;;;;;10508716;28;20028;-84
2022/06/19 12:52:10;;;;;;;8.47;2.47;;;32.30;63.70;;;;;;10516964;28;20028;-84
2022/06/19 12:57:22;;;;;;;6.72;2.17;;;32.40;62.10;;;;;;10511182;28;20028;-84
2022/06/19 13:02:28;;;;;;;10.73;2.65;;;32.40;61.20;;;;;;10504408;28;20104;-85
2022/06/19 13:07:44;;;;;;;8.07;2.15;;;32.40;61.20;;;;;;10523430;28;20032;-83
2022/06/19 13:12:59;;;;;;;6.63;2.33;;;32.30;59.80;;;;;;10499267;28;20039;-84
2022/06/19 13:18:08;;;;;;;17.10;3.05;;;32.10;60.40;;;;;;10508944;28;20024;-86
2022/06/19 13:23:18;;;;;;;11.15;2.65;;;32.20;62.90;;;;;;10519091;28;20028;-84
2022/06/19 13:28:24;;;;;;;7.50;2.47;;;32.30;61.40;;;;;;10517408;28;20024;-83
2022/06/19 13:33:44;;;;;;;4.53;2.20;;;32.10;60.60;;;;;;10513973;28;20108;-84
2022/06/19 13:39:00;;;;;;;7.47;2.40;;;31.90;60.60;;;;;;10509505;28;20360;-84
2022/06/19 13:44:32;;;;;;;6.20;2.60;;;31.90;60.40;;;;;;10507314;28;20037;-83
2022/06/19 13:49:54;;;;;;;8.45;2.88;;;31.80;60.50;;;;;;10501723;28;20085;-84
2022/06/19 13:55:10;;;;;;;8.02;2.58;;;31.80;60.90;;;;;;10516971;28;20121;-84
2022/06/19 14:00:53;;;;;;;6.10;2.60;;;31.80;61.00;;;;;;10515313;28;20047;-86
2022/06/19 14:05:54;;;;;;;7.70;2.53;;;31.60;59.70;;;;;;10517080;28;20041;-85
2022/06/19 14:11:06;;;;;;;10.75;2.15;;;31.40;61.60;;;;;;10493887;28;20056;-84
2022/06/19 14:16:29;;;;;;;11.38;2.50;;;31.30;61.40;;;;;;10468708;28;20082;-85
2022/06/19 14:22:02;;;;;;;8.75;2.47;;;31.30;60.60;;;;;;10474592;28;20058;-84
2022/06/19 14:27:11;;;;;;;9.20;2.78;;;31.10;60.30;;;;;;10464778;28;20100;-85
2022/06/19 14:32:15;;;;;;;11.65;2.75;;;31.00;61.50;;;;;;10459527;28;20029;-86
2022/06/19 14:37:28;;;;;;;5.47;2.58;;;30.90;59.40;;;;;;10475270;28;20052;-86
2022/06/19 14:42:47;;;;;;;12.00;3.15;;;30.70;60.50;;;;;;10449956;28;20052;-84
2022/06/19 14:48:12;;;;;;;9.70;2.28;;;30.50;60.40;;;;;;10466578;28;20035;-87
2022/06/19 14:53:48;;;;;;;10.13;2.97;;;30.30;59.50;;;;;;10475733;28;20887;-84
2022/06/19 14:58:51;;;;;;;8.43;2.80;;;30.20;59.80;;;;;;10470888;28;20021;-85
2022/06/19 15:04:27;;;;;;;6.03;2.22;;;30.10;60.10;;;;;;10479677;28;20128;-85
2022/06/19 15:09:41;;;;;;;11.02;2.58;;;30.00;60.50;;;;;;10457469;28;20036;-82
2022/06/19 15:14:55;;;;;;;7.03;2.40;;;29.80;59.60;;;;;;10492935;28;20347;-84
2022/06/19 15:19:56;;;;;;;6.60;2.10;;;29.80;60.00;;;;;;10468413;28;20032;-84
2022/06/19 15:24:58;;;;;;;8.85;2.40;;;29.70;60.60;;;;;;10464549;28;20032;-86
2022/06/19 15:30:19;;;;;;;9.88;2.50;;;29.70;61.20;;;;;;10463939;28;20033;-84
2022/06/19 15:35:49;;;;;;;7.20;2.55;;;29.70;61.10;;;;;;10484838;28;20020;-86
2022/06/19 15:40:50;;;;;;;9.85;2.58;;;29.60;61.20;;;;;;10470335;28;20017;-84
2022/06/19 15:45:58;;;;;;;10.20;2.60;;;29.50;60.40;;;;;;10486363;28;20075;-83
2022/06/19 15:51:20;;;;;;;9.30;2.70;;;29.40;59.40;;;;;;10474180;28;20451;-83
2022/06/19 15:56:43;;;;;;;9.60;2.42;;;29.40;60.20;;;;;;10468398;28;20017;-83
2022/06/19 16:01:55;;;;;;;9.73;2.65;;;29.30;60.00;;;;;;10472979;28;20380;-83
2022/06/19 16:07:09;;;;;;;6.57;2.28;;;29.20;59.90;;;;;;10457238;28;20051;-83
2022/06/19 16:12:38;;;;;;;8.55;2.58;;;29.20;59.60;;;;;;10467266;28;20033;-84
2022/06/19 16:17:39;;;;;;;16.88;3.00;;;29.10;60.90;;;;;;10474891;28;20056;-84
2022/06/19 16:22:41;;;;;;;7.50;3.25;;;29.10;62.40;;;;;;10466130;28;20104;-84
2022/06/19 16:27:45;;;;;;;4.75;2.38;;;29.00;62.70;;;;;;10481187;28;20047;-84
2022/06/19 16:32:52;;;;;;;12.23;2.97;;;28.90;63.80;;;;;;10483712;28;20054;-83
2022/06/19 16:48:40;;;;;;;4.65;2.25;;;28.60;62.30;;;;;;10471832;28;20033;-86
2022/06/19 16:53:54;;;;;;;5.72;2.00;;;28.50;62.50;;;;;;10466608;28;20232;-85
2022/06/19 16:59:03;;;;;;;4.75;2.22;;;28.40;62.90;;;;;;10470980;28;20027;-82
2022/06/19 17:04:17;;;;;;;6.13;2.75;;;28.30;63.40;;;;;;10465690;28;20080;-85
2022/06/19 17:09:27;;;;;;;6.43;2.45;;;28.10;64.10;;;;;;10456483;28;20060;-83
2022/06/19 17:14:37;;;;;;;7.13;2.90;;;28.00;64.30;;;;;;10465374;28;20032;-81
2022/06/19 17:20:12;;;;;;;5.35;2.30;;;27.90;64.70;;;;;;10470966;28;20024;-82
2022/06/19 17:25:21;;;;;;;19.60;10.07;;;27.70;64.80;;;;;;10449042;28;20060;-83
2022/06/19 17:30:35;;;;;;;15.30;7.70;;;27.60;64.90;;;;;;10470168;28;20020;-83
2022/06/19 20:19:31;;;;;;;6.75;3.40;;;23.10;71.40;;;;;;10398601;28;20053;-84
2022/06/19 20:24:37;;;;;;;12.73;2.90;;;23.10;71.90;;;;;;10407141;28;20033;-86
2022/06/19 20:29:57;;;;;;;5.13;2.90;;;23.00;72.00;;;;;;10405804;28;20040;-83
2022/06/19 20:35:01;;;;;;;6.22;3.22;;;22.90;72.20;;;;;;10407054;28;20021;-88
2022/06/19 20:40:04;;;;;;;5.28;2.92;;;22.80;72.30;;;;;;10406635;28;20029;-84
2022/06/19 20:45:06;;;;;;;5.28;3.10;;;22.80;72.40;;;;;;10391347;28;20101;-88
2022/06/19 20:50:22;;;;;;;7.07;3.10;;;22.70;72.90;;;;;;10404421;28;20393;-87
2022/06/19 20:55:30;;;;;;;5.78;2.80;;;22.70;73.00;;;;;;10432393;28;20186;-85
2022/06/19 21:00:35;;;;;;;5.00;2.95;;;22.60;72.60;;;;;;10402206;28;20018;-84
2022/06/19 21:05:43;;;;;;;6.20;2.87;;;22.60;73.10;;;;;;10404693;28;20530;-88
2022/06/19 21:10:47;;;;;;;7.80;2.42;;;22.60;73.00;;;;;;10405665;28;20374;-86
2022/06/19 21:15:49;;;;;;;5.32;2.95;;;22.50;73.10;;;;;;10405190;28;20473;-85
2022/06/19 21:20:51;;;;;;;4.22;2.72;;;22.40;73.10;;;;;;10404457;28;20104;-84
2022/06/19 21:25:51;;;;;;;4.88;2.55;;;22.30;73.50;;;;;;10403635;28;20040;-87
2022/06/19 21:30:52;;;;;;;5.22;3.08;;;22.20;73.80;;;;;;10398382;28;20021;-85
2022/06/19 21:35:54;;;;;;;5.95;2.35;;;22.10;73.90;;;;;;10392263;28;20029;-84
2022/06/19 21:40:55;;;;;;;4.95;2.53;;;22.10;74.70;;;;;;10400137;28;20021;-83
2022/06/19 21:45:56;;;;;;;5.78;2.92;;;22.00;75.00;;;;;;10395953;28;20037;-86
2022/06/19 21:50:57;;;;;;;5.40;3.05;;;21.90;74.90;;;;;;10393993;28;20014;-82
2022/06/19 21:55:58;;;;;;;5.95;3.20;;;21.80;75.40;;;;;;10404830;28;20022;-83
2022/06/19 22:00:59;;;;;;;6.95;5.60;;;21.60;76.10;;;;;;10386575;28;20037;-85
2022/06/19 22:06:23;;;;;;;4.82;3.33;;;21.50;76.50;;;;;;10401803;28;20040;-84
2022/06/19 22:16:45;;;;;;;4.82;2.80;;;21.50;76.50;;;;;;10398990;28;20049;-86
2022/06/19 22:21:46;;;;;;;4.38;2.65;;;21.50;76.80;;;;;;10410255;28;20017;-84
2022/06/19 22:26:49;;;;;;;3.88;2.53;;;21.50;77.20;;;;;;10401397;28;20833;-84
2022/06/19 22:31:50;;;;;;;6.10;3.28;;;21.50;77.20;;;;;;10402486;28;20025;-86
2022/06/19 22:36:59;;;;;;;5.30;3.10;;;21.40;77.70;;;;;;10411313;28;20074;-85
2022/06/19 22:42:03;;;;;;;4.72;3.20;;;21.30;78.10;;;;;;10403853;28;20021;-83
2022/06/19 22:47:15;;;;;;;4.00;3.10;;;21.20;78.40;;;;;;10407097;28;20037;-83
2022/06/19 22:52:17;;;;;;;7.45;3.58;;;21.10;78.20;;;;;;10410436;28;20030;-83
2022/06/19 22:57:31;;;;;;;5.32;3.50;;;21.10;79.20;;;;;;10409087;28;20025;-85
2022/06/19 23:02:32;;;;;;;3.20;2.90;;;21.00;79.40;;;;;;10409842;28;20049;-83
2022/06/19 23:07:33;;;;;;;4.20;3.13;;;21.00;79.70;;;;;;10396694;28;20087;-86
2022/06/19 23:12:33;;;;;;;4.13;3.20;;;20.80;80.60;;;;;;10409601;28;20350;-87
2022/06/19 23:17:34;;;;;;;6.80;2.67;;;20.70;80.60;;;;;;10396629;28;20051;-87
2022/06/19 23:22:37;;;;;;;3.85;2.85;;;20.60;80.70;;;;;;10405283;28;20029;-83
2022/06/19 23:27:37;;;;;;;4.80;3.25;;;20.60;81.50;;;;;;10395237;28;20110;-83
2022/06/19 23:32:38;;;;;;;3.90;3.17;;;20.30;82.90;;;;;;10405283;28;20101;-85
2022/06/19 23:37:42;;;;;;;3.85;3.08;;;20.10;83.70;;;;;;10406212;28;20582;-85
2022/06/19 23:42:42;;;;;;;5.05;3.25;;;19.90;84.20;;;;;;10392678;28;20025;-87
2022/06/19 23:47:44;;;;;;;6.15;2.90;;;19.80;84.60;;;;;;10408901;28;20052;-87
2022/06/19 23:52:45;;;;;;;4.95;3.47;;;19.80;83.50;;;;;;10408215;28;20052;-85
2022/06/19 23:57:48;;;;;;;6.28;4.40;;;19.70;85.30;;;;;;10408229;28;20017;-83
